sensor_id;sensor_type;location;lat;lon;timestamp;pressure;altitude;pressure_sealevel;temperature;humidity
55733;BME280;41637;52.364;9.910;2023-03-18T00:00:07;100124.47;;;12.31;56.14
55733;BME280;41637;52.364;9.910;2023-03-18T00:02:39;100118.89;;;12.29;56.33
55733;BME280;41637;52.364;9.910;2023-03-18T00:05:07;100119.88;;;12.29;55.97
55733;BME280;41637;52.364;9.910;2023-03-18T00:07:35;100125.80;;;12.30;56.04
55733;BME280;41637;52.364;9.910;2023-03-18T00:10:04;100130.77;;;12.31;55.93
55733;BME280;41637;52.364;9.910;2023-03-18T00:12:32;100131.89;;;12.34;55.97
55733;BME280;41637;52.364;9.910;2023-03-18T00:14:59;100129.60;;;12.36;56.26
55733;BME280;41637;52.364;9.910;2023-03-18T00:17:26;100132.10;;;12.39;56.61
55733;BME280;41637;52.364;9.910;2023-03-18T00:19:53;100131.45;;;12.41;56.53
55733;BME280;41637;52.364;9.910;2023-03-18T00:25:41;100127.85;;;12.44;57.33
55733;BME280;41637;52.364;9.910;2023-03-18T00:28:08;100123.96;;;12.44;57.77
55733;BME280;41637;52.364;9.910;2023-03-18T00:30:37;100121.35;;;12.43;57.75
55733;BME280;41637;52.364;9.910;2023-03-18T00:33:05;100123.84;;;12.43;57.78
55733;BME280;41637;52.364;9.910;2023-03-18T00:35:32;100125.40;;;12.44;57.74
55733;BME280;41637;52.364;9.910;2023-03-18T00:37:59;100126.95;;;12.41;57.89
55733;BME280;41637;52.364;9.910;2023-03-18T00:40:30;100131.26;;;12.44;57.99
55733;BME280;41637;52.364;9.910;2023-03-18T00:43:09;100129.52;;;12.42;58.01
55733;BME280;41637;52.364;9.910;2023-03-18T00:45:39;100133.86;;;12.43;58.06
55733;BME280;41637;52.364;9.910;2023-03-18T00:48:06;100137.09;;;12.42;58.34
55733;BME280;41637;52.364;9.910;2023-03-18T00:50:35;100140.09;;;12.40;58.47
55733;BME280;41637;52.364;9.910;2023-03-18T00:53:02;100143.96;;;12.37;58.76
55733;BME280;41637;52.364;9.910;2023-03-18T00:55:29;100144.52;;;12.34;58.89
55733;BME280;41637;52.364;9.910;2023-03-18T00:57:55;100146.69;;;12.33;59.00
55733;BME280;41637;52.364;9.910;2023-03-18T01:00:22;100149.75;;;12.31;59.28
55733;BME280;41637;52.364;9.910;2023-03-18T01:02:51;100149.66;;;12.29;59.30
55733;BME280;41637;52.364;9.910;2023-03-18T01:05:18;100156.86;;;12.30;59.61
55733;BME280;41637;52.364;9.910;2023-03-18T01:07:45;100158.34;;;12.29;59.91
55733;BME280;41637;52.364;9.910;2023-03-18T01:10:13;100165.58;;;12.29;60.34
55733;BME280;41637;52.364;9.910;2023-03-18T01:12:42;100160.42;;;12.28;60.35
55733;BME280;41637;52.364;9.910;2023-03-18T01:15:15;100159.84;;;12.27;60.83
55733;BME280;41637;52.364;9.910;2023-03-18T01:17:44;100158.73;;;12.26;61.22
55733;BME280;41637;52.364;9.910;2023-03-18T01:20:13;100160.08;;;12.25;61.46
55733;BME280;41637;52.364;9.910;2023-03-18T01:22:42;100159.26;;;12.23;61.76
55733;BME280;41637;52.364;9.910;2023-03-18T01:25:11;100154.96;;;12.22;62.04
55733;BME280;41637;52.364;9.910;2023-03-18T01:27:38;100153.04;;;12.20;62.34
55733;BME280;41637;52.364;9.910;2023-03-18T01:30:06;100148.24;;;12.18;62.55
55733;BME280;41637;52.364;9.910;2023-03-18T01:32:35;100147.13;;;12.17;62.69
55733;BME280;41637;52.364;9.910;2023-03-18T01:35:02;100139.63;;;12.15;62.99
55733;BME280;41637;52.364;9.910;2023-03-18T01:37:28;100144.15;;;12.12;63.35
55733;BME280;41637;52.364;9.910;2023-03-18T01:39:56;100149.71;;;12.08;63.97
55733;BME280;41637;52.364;9.910;2023-03-18T01:42:23;100155.74;;;12.04;64.21
55733;BME280;41637;52.364;9.910;2023-03-18T01:45:15;100154.36;;;11.98;64.51
55733;BME280;41637;52.364;9.910;2023-03-18T01:47:44;100154.20;;;11.92;64.93
55733;BME280;41637;52.364;9.910;2023-03-18T01:50:13;100149.80;;;11.88;65.41
55733;BME280;41637;52.364;9.910;2023-03-18T01:52:42;100149.31;;;11.83;65.72
55733;BME280;41637;52.364;9.910;2023-03-18T01:55:16;100152.52;;;11.80;65.98
55733;BME280;41637;52.364;9.910;2023-03-18T01:57:45;100152.88;;;11.77;66.19
55733;BME280;41637;52.364;9.910;2023-03-18T02:00:14;100153.23;;;11.74;66.64
55733;BME280;41637;52.364;9.910;2023-03-18T02:02:44;100151.08;;;11.72;67.14
55733;BME280;41637;52.364;9.910;2023-03-18T02:05:14;100147.60;;;11.70;67.33
55733;BME280;41637;52.364;9.910;2023-03-18T02:07:42;100147.63;;;11.69;67.63
55733;BME280;41637;52.364;9.910;2023-03-18T02:10:22;100149.99;;;11.68;67.66
55733;BME280;41637;52.364;9.910;2023-03-18T02:12:54;100148.80;;;11.66;68.24
55733;BME280;41637;52.364;9.910;2023-03-18T02:15:23;100151.45;;;11.64;68.46
55733;BME280;41637;52.364;9.910;2023-03-18T02:17:54;100146.98;;;11.61;68.55
55733;BME280;41637;52.364;9.910;2023-03-18T02:22:54;100157.02;;;11.57;68.74
55733;BME280;41637;52.364;9.910;2023-03-18T02:25:38;100159.65;;;11.55;69.00
55733;BME280;41637;52.364;9.910;2023-03-18T02:28:09;100155.55;;;11.52;69.10
55733;BME280;41637;52.364;9.910;2023-03-18T02:30:44;100153.38;;;11.51;69.20
55733;BME280;41637;52.364;9.910;2023-03-18T02:33:15;100158.81;;;11.51;69.48
55733;BME280;41637;52.364;9.910;2023-03-18T02:35:45;100159.65;;;11.49;69.61
55733;BME280;41637;52.364;9.910;2023-03-18T02:38:12;100162.02;;;11.47;69.75
55733;BME280;41637;52.364;9.910;2023-03-18T02:40:41;100160.29;;;11.47;69.94
55733;BME280;41637;52.364;9.910;2023-03-18T02:43:20;100164.70;;;11.46;69.90
55733;BME280;41637;52.364;9.910;2023-03-18T02:48:27;100173.95;;;11.44;70.26
55733;BME280;41637;52.364;9.910;2023-03-18T02:50:55;100176.72;;;11.43;70.32
55733;BME280;41637;52.364;9.910;2023-03-18T02:53:22;100177.34;;;11.42;70.57
55733;BME280;41637;52.364;9.910;2023-03-18T02:55:49;100174.38;;;11.40;70.56
55733;BME280;41637;52.364;9.910;2023-03-18T02:58:16;100176.13;;;11.39;70.82
55733;BME280;41637;52.364;9.910;2023-03-18T03:00:42;100178.29;;;11.37;71.36
55733;BME280;41637;52.364;9.910;2023-03-18T03:03:09;100179.11;;;11.34;72.12
55733;BME280;41637;52.364;9.910;2023-03-18T03:05:36;100181.85;;;11.29;73.36
55733;BME280;41637;52.364;9.910;2023-03-18T03:08:03;100180.95;;;11.23;74.70
55733;BME280;41637;52.364;9.910;2023-03-18T03:10:30;100179.69;;;11.19;75.55
55733;BME280;41637;52.364;9.910;2023-03-18T03:12:59;100190.19;;;11.16;76.03
55733;BME280;41637;52.364;9.910;2023-03-18T03:15:27;100196.09;;;11.13;76.91
55733;BME280;41637;52.364;9.910;2023-03-18T03:17:54;100194.27;;;11.10;77.64
55733;BME280;41637;52.364;9.910;2023-03-18T03:20:21;100195.77;;;11.07;78.98
55733;BME280;41637;52.364;9.910;2023-03-18T03:22:47;100199.70;;;11.05;80.03
55733;BME280;41637;52.364;9.910;2023-03-18T03:25:14;100203.73;;;10.99;83.30
55733;BME280;41637;52.364;9.910;2023-03-18T03:27:40;100211.47;;;10.94;86.86
55733;BME280;41637;52.364;9.910;2023-03-18T03:30:12;100214.85;;;10.88;88.85
55733;BME280;41637;52.364;9.910;2023-03-18T03:32:39;100211.71;;;10.82;89.95
55733;BME280;41637;52.364;9.910;2023-03-18T03:35:07;100213.77;;;10.75;91.76
55733;BME280;41637;52.364;9.910;2023-03-18T03:37:33;100218.03;;;10.70;93.48
55733;BME280;41637;52.364;9.910;2023-03-18T03:40:01;100217.02;;;10.66;94.06
55733;BME280;41637;52.364;9.910;2023-03-18T03:42:30;100213.10;;;10.62;94.95
55733;BME280;41637;52.364;9.910;2023-03-18T03:44:57;100212.73;;;10.59;95.25
55733;BME280;41637;52.364;9.910;2023-03-18T03:47:24;100212.25;;;10.56;96.04
55733;BME280;41637;52.364;9.910;2023-03-18T03:49:51;100207.95;;;10.53;96.19
55733;BME280;41637;52.364;9.910;2023-03-18T03:52:17;100208.33;;;10.52;95.90
55733;BME280;41637;52.364;9.910;2023-03-18T03:54:45;100211.63;;;10.51;95.80
55733;BME280;41637;52.364;9.910;2023-03-18T03:57:11;100212.45;;;10.50;95.78
55733;BME280;41637;52.364;9.910;2023-03-18T03:59:38;100218.37;;;10.48;96.90
55733;BME280;41637;52.364;9.910;2023-03-18T04:02:05;100219.23;;;10.45;97.09
55733;BME280;41637;52.364;9.910;2023-03-18T04:04:32;100214.88;;;10.43;97.33
55733;BME280;41637;52.364;9.910;2023-03-18T04:06:58;100211.55;;;10.41;97.02
55733;BME280;41637;52.364;9.910;2023-03-18T04:09:27;100212.44;;;10.39;96.88
55733;BME280;41637;52.364;9.910;2023-03-18T04:11:54;100218.61;;;10.38;96.96
55733;BME280;41637;52.364;9.910;2023-03-18T04:14:21;100224.83;;;10.36;96.80
55733;BME280;41637;52.364;9.910;2023-03-18T04:16:48;100229.64;;;10.35;96.99
55733;BME280;41637;52.364;9.910;2023-03-18T04:19:14;100224.09;;;10.32;96.90
55733;BME280;41637;52.364;9.910;2023-03-18T04:21:42;100220.70;;;10.30;96.63
55733;BME280;41637;52.364;9.910;2023-03-18T04:24:09;100213.75;;;10.27;96.79
55733;BME280;41637;52.364;9.910;2023-03-18T04:26:36;100213.27;;;10.24;96.66
55733;BME280;41637;52.364;9.910;2023-03-18T04:29:03;100215.23;;;10.20;96.74
55733;BME280;41637;52.364;9.910;2023-03-18T04:31:30;100212.86;;;10.17;96.70
55733;BME280;41637;52.364;9.910;2023-03-18T04:33:57;100216.52;;;10.16;96.37
55733;BME280;41637;52.364;9.910;2023-03-18T04:36:25;100218.88;;;10.13;96.55
55733;BME280;41637;52.364;9.910;2023-03-18T04:38:53;100218.84;;;10.11;96.16
55733;BME280;41637;52.364;9.910;2023-03-18T04:41:20;100222.39;;;10.08;96.27
55733;BME280;41637;52.364;9.910;2023-03-18T04:43:47;100219.61;;;10.06;96.11
55733;BME280;41637;52.364;9.910;2023-03-18T04:46:14;100224.54;;;10.03;96.06
55733;BME280;41637;52.364;9.910;2023-03-18T04:48:42;100228.30;;;10.01;95.94
55733;BME280;41637;52.364;9.910;2023-03-18T04:51:09;100234.95;;;9.99;96.08
55733;BME280;41637;52.364;9.910;2023-03-18T04:53:38;100233.64;;;9.95;96.24
55733;BME280;41637;52.364;9.910;2023-03-18T04:56:05;100233.77;;;9.93;96.09
55733;BME280;41637;52.364;9.910;2023-03-18T04:58:35;100233.30;;;9.89;96.31
55733;BME280;41637;52.364;9.910;2023-03-18T05:01:02;100231.52;;;9.86;96.43
55733;BME280;41637;52.364;9.910;2023-03-18T05:03:30;100230.05;;;9.84;96.46
55733;BME280;41637;52.364;9.910;2023-03-18T05:05:56;100227.68;;;9.81;96.43
55733;BME280;41637;52.364;9.910;2023-03-18T05:08:23;100222.04;;;9.78;96.84
55733;BME280;41637;52.364;9.910;2023-03-18T05:10:49;100227.73;;;9.75;96.67
55733;BME280;41637;52.364;9.910;2023-03-18T05:13:16;100225.46;;;9.71;96.74
55733;BME280;41637;52.364;9.910;2023-03-18T05:15:44;100229.14;;;9.69;96.84
55733;BME280;41637;52.364;9.910;2023-03-18T05:18:11;100226.02;;;9.65;97.06
55733;BME280;41637;52.364;9.910;2023-03-18T05:20:38;100222.47;;;9.63;97.29
55733;BME280;41637;52.364;9.910;2023-03-18T05:23:04;100221.45;;;9.59;97.38
55733;BME280;41637;52.364;9.910;2023-03-18T05:25:31;100221.04;;;9.57;97.35
55733;BME280;41637;52.364;9.910;2023-03-18T05:27:59;100223.67;;;9.54;97.49
55733;BME280;41637;52.364;9.910;2023-03-18T05:30:26;100226.86;;;9.49;97.66
55733;BME280;41637;52.364;9.910;2023-03-18T05:32:53;100228.79;;;9.46;97.60
55733;BME280;41637;52.364;9.910;2023-03-18T05:35:20;100231.14;;;9.44;97.59
55733;BME280;41637;52.364;9.910;2023-03-18T05:37:47;100232.77;;;9.41;97.57
55733;BME280;41637;52.364;9.910;2023-03-18T05:40:14;100233.20;;;9.40;97.37
55733;BME280;41637;52.364;9.910;2023-03-18T05:42:41;100240.11;;;9.36;97.43
55733;BME280;41637;52.364;9.910;2023-03-18T05:45:21;100235.89;;;9.33;97.32
55733;BME280;41637;52.364;9.910;2023-03-18T05:47:48;100243.75;;;9.30;97.18
55733;BME280;41637;52.364;9.910;2023-03-18T05:50:29;100245.46;;;9.26;97.42
55733;BME280;41637;52.364;9.910;2023-03-18T05:52:56;100244.95;;;9.22;97.25
55733;BME280;41637;52.364;9.910;2023-03-18T05:55:23;100243.55;;;9.19;97.34
55733;BME280;41637;52.364;9.910;2023-03-18T05:57:53;100246.77;;;9.16;97.26
55733;BME280;41637;52.364;9.910;2023-03-18T06:00:23;100250.67;;;9.14;97.26
55733;BME280;41637;52.364;9.910;2023-03-18T06:02:50;100250.91;;;9.14;97.54
55733;BME280;41637;52.364;9.910;2023-03-18T06:05:20;100248.09;;;9.12;97.72
55733;BME280;41637;52.364;9.910;2023-03-18T06:07:47;100250.44;;;9.12;97.83
55733;BME280;41637;52.364;9.910;2023-03-18T06:10:15;100249.16;;;9.12;97.51
55733;BME280;41637;52.364;9.910;2023-03-18T06:12:42;100253.54;;;9.12;97.41
55733;BME280;41637;52.364;9.910;2023-03-18T06:15:11;100256.17;;;9.14;97.63
55733;BME280;41637;52.364;9.910;2023-03-18T06:17:39;100257.80;;;9.16;97.47
55733;BME280;41637;52.364;9.910;2023-03-18T06:20:07;100258.86;;;9.21;97.47
55733;BME280;41637;52.364;9.910;2023-03-18T06:22:34;100259.78;;;9.25;97.20
55733;BME280;41637;52.364;9.910;2023-03-18T06:25:02;100260.70;;;9.31;97.49
55733;BME280;41637;52.364;9.910;2023-03-18T06:27:30;100257.97;;;9.38;97.20
55733;BME280;41637;52.364;9.910;2023-03-18T06:29:57;100257.71;;;9.45;97.21
55733;BME280;41637;52.364;9.910;2023-03-18T06:32:28;100253.63;;;9.51;96.95
55733;BME280;41637;52.364;9.910;2023-03-18T06:34:55;100256.79;;;9.57;96.86
55733;BME280;41637;52.364;9.910;2023-03-18T06:37:22;100252.39;;;9.63;96.57
55733;BME280;41637;52.364;9.910;2023-03-18T06:39:49;100256.92;;;9.68;96.46
55733;BME280;41637;52.364;9.910;2023-03-18T06:42:16;100258.21;;;9.71;96.24
55733;BME280;41637;52.364;9.910;2023-03-18T06:44:42;100263.41;;;9.74;96.09
55733;BME280;41637;52.364;9.910;2023-03-18T06:47:20;100265.13;;;9.78;96.27
55733;BME280;41637;52.364;9.910;2023-03-18T06:49:50;100277.02;;;9.82;96.04
55733;BME280;41637;52.364;9.910;2023-03-18T06:52:17;100281.92;;;9.86;95.93
55733;BME280;41637;52.364;9.910;2023-03-18T06:54:45;100285.63;;;9.89;95.98
55733;BME280;41637;52.364;9.910;2023-03-18T06:57:11;100287.91;;;9.93;95.99
55733;BME280;41637;52.364;9.910;2023-03-18T06:59:39;100292.68;;;9.99;95.94
55733;BME280;41637;52.364;9.910;2023-03-18T07:02:06;100293.88;;;10.05;95.86
55733;BME280;41637;52.364;9.910;2023-03-18T07:04:34;100300.27;;;10.13;95.68
55733;BME280;41637;52.364;9.910;2023-03-18T07:07:01;100302.62;;;10.21;95.46
55733;BME280;41637;52.364;9.910;2023-03-18T07:09:28;100307.63;;;10.28;95.24
55733;BME280;41637;52.364;9.910;2023-03-18T07:11:55;100305.67;;;10.35;94.74
55733;BME280;41637;52.364;9.910;2023-03-18T07:14:22;100305.27;;;10.45;94.56
55733;BME280;41637;52.364;9.910;2023-03-18T07:16:49;100304.41;;;10.54;94.05
55733;BME280;41637;52.364;9.910;2023-03-18T07:19:16;100305.09;;;10.65;93.81
55733;BME280;41637;52.364;9.910;2023-03-18T07:21:44;100308.89;;;10.73;93.18
55733;BME280;41637;52.364;9.910;2023-03-18T07:24:12;100308.31;;;10.80;93.01
55733;BME280;41637;52.364;9.910;2023-03-18T07:26:40;100316.48;;;10.90;92.56
55733;BME280;41637;52.364;9.910;2023-03-18T07:29:06;100323.59;;;10.97;92.09
55733;BME280;41637;52.364;9.910;2023-03-18T07:31:33;100329.14;;;11.07;91.70
55733;BME280;41637;52.364;9.910;2023-03-18T07:34:01;100331.92;;;11.19;91.38
55733;BME280;41637;52.364;9.910;2023-03-18T07:36:28;100333.63;;;11.34;91.32
55733;BME280;41637;52.364;9.910;2023-03-18T07:38:55;100336.93;;;11.50;91.09
55733;BME280;41637;52.364;9.910;2023-03-18T07:41:22;100343.88;;;11.64;90.39
55733;BME280;41637;52.364;9.910;2023-03-18T07:43:49;100347.68;;;11.76;89.52
55733;BME280;41637;52.364;9.910;2023-03-18T07:46:16;100346.83;;;11.86;88.82
55733;BME280;41637;52.364;9.910;2023-03-18T07:48:43;100348.12;;;11.98;88.80
55733;BME280;41637;52.364;9.910;2023-03-18T07:51:10;100349.02;;;12.05;87.83
55733;BME280;41637;52.364;9.910;2023-03-18T07:53:37;100351.49;;;12.10;87.06
55733;BME280;41637;52.364;9.910;2023-03-18T07:56:04;100356.88;;;12.15;86.71
55733;BME280;41637;52.364;9.910;2023-03-18T07:58:31;100352.79;;;12.19;86.58
55733;BME280;41637;52.364;9.910;2023-03-18T08:00:58;100356.27;;;12.26;86.67
55733;BME280;41637;52.364;9.910;2023-03-18T08:03:25;100359.14;;;12.31;86.25
55733;BME280;41637;52.364;9.910;2023-03-18T08:05:53;100358.15;;;12.38;86.05
55733;BME280;41637;52.364;9.910;2023-03-18T08:08:21;100361.13;;;12.42;85.64
55733;BME280;41637;52.364;9.910;2023-03-18T08:10:48;100361.09;;;12.49;85.64
55733;BME280;41637;52.364;9.910;2023-03-18T08:13:16;100365.71;;;12.57;85.39
55733;BME280;41637;52.364;9.910;2023-03-18T08:15:43;100363.60;;;12.67;85.22
55733;BME280;41637;52.364;9.910;2023-03-18T08:18:10;100365.44;;;12.75;84.91
55733;BME280;41637;52.364;9.910;2023-03-18T08:20:37;100370.32;;;12.84;85.04
55733;BME280;41637;52.364;9.910;2023-03-18T08:23:04;100378.06;;;12.93;84.72
55733;BME280;41637;52.364;9.910;2023-03-18T08:25:30;100374.82;;;13.03;84.41
55733;BME280;41637;52.364;9.910;2023-03-18T08:27:58;100376.46;;;13.13;84.12
55733;BME280;41637;52.364;9.910;2023-03-18T08:30:25;100382.44;;;13.22;83.64
55733;BME280;41637;52.364;9.910;2023-03-18T08:32:54;100382.02;;;13.31;83.71
55733;BME280;41637;52.364;9.910;2023-03-18T08:35:21;100383.80;;;13.44;83.70
55733;BME280;41637;52.364;9.910;2023-03-18T08:37:49;100386.20;;;13.59;82.92
55733;BME280;41637;52.364;9.910;2023-03-18T08:40:17;100383.73;;;13.77;82.81
55733;BME280;41637;52.364;9.910;2023-03-18T08:42:45;100384.52;;;14.00;81.63
55733;BME280;41637;52.364;9.910;2023-03-18T08:45:13;100387.80;;;14.19;81.50
55733;BME280;41637;52.364;9.910;2023-03-18T08:47:40;100388.58;;;14.28;80.04
55733;BME280;41637;52.364;9.910;2023-03-18T08:50:07;100394.23;;;14.25;78.86
55733;BME280;41637;52.364;9.910;2023-03-18T08:52:35;100397.81;;;14.29;79.02
55733;BME280;41637;52.364;9.910;2023-03-18T08:55:05;100398.46;;;14.36;78.98
55733;BME280;41637;52.364;9.910;2023-03-18T08:57:33;100401.48;;;14.49;78.63
55733;BME280;41637;52.364;9.910;2023-03-18T09:00:00;100402.75;;;14.52;77.34
55733;BME280;41637;52.364;9.910;2023-03-18T09:02:27;100402.27;;;14.53;76.95
55733;BME280;41637;52.364;9.910;2023-03-18T09:04:54;100394.58;;;14.65;77.18
55733;BME280;41637;52.364;9.910;2023-03-18T09:07:22;100397.14;;;14.79;77.05
55733;BME280;41637;52.364;9.910;2023-03-18T09:09:49;100397.44;;;14.86;76.40
55733;BME280;41637;52.364;9.910;2023-03-18T09:12:16;100403.23;;;14.83;75.77
55733;BME280;41637;52.364;9.910;2023-03-18T09:14:43;100396.06;;;14.78;75.74
55733;BME280;41637;52.364;9.910;2023-03-18T09:17:10;100393.58;;;14.84;75.88
55733;BME280;41637;52.364;9.910;2023-03-18T09:19:37;100400.80;;;14.90;75.62
55733;BME280;41637;52.364;9.910;2023-03-18T09:22:06;100397.15;;;14.88;75.13
55733;BME280;41637;52.364;9.910;2023-03-18T09:24:37;100398.48;;;14.97;75.84
55733;BME280;41637;52.364;9.910;2023-03-18T09:27:04;100399.95;;;15.05;75.71
55733;BME280;41637;52.364;9.910;2023-03-18T09:29:31;100393.23;;;15.10;75.53
55733;BME280;41637;52.364;9.910;2023-03-18T09:31:58;100389.91;;;15.11;75.33
55733;BME280;41637;52.364;9.910;2023-03-18T09:34:26;100392.71;;;15.19;76.08
55733;BME280;41637;52.364;9.910;2023-03-18T09:36:53;100406.88;;;15.23;74.74
55733;BME280;41637;52.364;9.910;2023-03-18T09:39:20;100403.92;;;15.25;73.79
55733;BME280;41637;52.364;9.910;2023-03-18T09:42:02;100408.68;;;15.24;72.86
55733;BME280;41637;52.364;9.910;2023-03-18T09:44:35;100406.64;;;15.21;72.78
55733;BME280;41637;52.364;9.910;2023-03-18T09:52:39;100417.40;;;15.22;72.21
55733;BME280;41637;52.364;9.910;2023-03-18T09:57:45;100418.29;;;15.44;71.96
55733;BME280;41637;52.364;9.910;2023-03-18T10:00:23;100421.48;;;15.56;72.01
55733;BME280;41637;52.364;9.910;2023-03-18T10:03:00;100419.27;;;15.69;72.34
55733;BME280;41637;52.364;9.910;2023-03-18T10:05:48;100424.98;;;15.83;70.97
55733;BME280;41637;52.364;9.910;2023-03-18T10:08:37;100426.67;;;15.86;70.07
55733;BME280;41637;52.364;9.910;2023-03-18T10:11:20;100425.43;;;15.85;70.31
55733;BME280;41637;52.364;9.910;2023-03-18T10:16:29;100430.45;;;15.81;69.08
55733;BME280;41637;52.364;9.910;2023-03-18T10:18:58;100437.29;;;15.80;68.44
55733;BME280;41637;52.364;9.910;2023-03-18T10:21:49;100434.27;;;15.82;68.67
55733;BME280;41637;52.364;9.910;2023-03-18T10:33:07;100435.91;;;16.11;67.35
55733;BME280;41637;52.364;9.910;2023-03-18T10:38:36;100438.27;;;16.06;68.02
55733;BME280;41637;52.364;9.910;2023-03-18T10:41:18;100442.64;;;16.08;67.03
55733;BME280;41637;52.364;9.910;2023-03-18T10:43:51;100440.71;;;16.23;67.15
55733;BME280;41637;52.364;9.910;2023-03-18T10:46:19;100441.19;;;16.31;66.84
55733;BME280;41637;52.364;9.910;2023-03-18T10:48:52;100441.16;;;16.29;65.53
55733;BME280;41637;52.364;9.910;2023-03-18T10:51:28;100442.30;;;16.31;65.68
55733;BME280;41637;52.364;9.910;2023-03-18T10:56:34;100440.88;;;16.52;65.41
55733;BME280;41637;52.364;9.910;2023-03-18T10:59:12;100441.64;;;16.67;64.71
55733;BME280;41637;52.364;9.910;2023-03-18T11:01:41;100443.81;;;16.63;63.70
55733;BME280;41637;52.364;9.910;2023-03-18T11:04:16;100439.20;;;16.50;64.29
55733;BME280;41637;52.364;9.910;2023-03-18T11:06:50;100436.80;;;16.47;65.38
55733;BME280;41637;52.364;9.910;2023-03-18T11:09:20;100437.22;;;16.60;65.49
55733;BME280;41637;52.364;9.910;2023-03-18T11:11:56;100435.67;;;16.80;65.10
55733;BME280;41637;52.364;9.910;2023-03-18T11:14:28;100437.98;;;16.85;64.38
55733;BME280;41637;52.364;9.910;2023-03-18T11:17:17;100433.69;;;16.94;64.38
55733;BME280;41637;52.364;9.910;2023-03-18T11:19:47;100440.01;;;16.92;62.91
55733;BME280;41637;52.364;9.910;2023-03-18T11:22:18;100444.30;;;16.91;62.56
55733;BME280;41637;52.364;9.910;2023-03-18T11:25:00;100445.30;;;16.91;62.31
55733;BME280;41637;52.364;9.910;2023-03-18T11:27:33;100443.58;;;16.93;63.17
55733;BME280;41637;52.364;9.910;2023-03-18T11:32:53;100445.65;;;16.80;63.59
55733;BME280;41637;52.364;9.910;2023-03-18T11:35:30;100442.64;;;16.70;63.77
55733;BME280;41637;52.364;9.910;2023-03-18T11:38:02;100442.39;;;16.62;63.54
55733;BME280;41637;52.364;9.910;2023-03-18T11:40:29;100442.14;;;16.57;64.25
55733;BME280;41637;52.364;9.910;2023-03-18T11:43:00;100443.65;;;16.59;64.30
55733;BME280;41637;52.364;9.910;2023-03-18T11:45:48;100442.46;;;16.71;64.57
55733;BME280;41637;52.364;9.910;2023-03-18T11:48:22;100452.81;;;16.80;62.83
55733;BME280;41637;52.364;9.910;2023-03-18T11:56:54;100448.84;;;16.83;61.79
55733;BME280;41637;52.364;9.910;2023-03-18T12:07:32;100446.52;;;18.27;57.03
55733;BME280;41637;52.364;9.910;2023-03-18T12:13:11;100445.13;;;19.00;54.29
55733;BME280;41637;52.364;9.910;2023-03-18T12:18:42;100449.39;;;19.41;52.68
55733;BME280;41637;52.364;9.910;2023-03-18T12:21:25;100451.64;;;19.24;53.25
55733;BME280;41637;52.364;9.910;2023-03-18T12:24:25;100451.13;;;19.55;51.97
55733;BME280;41637;52.364;9.910;2023-03-18T12:30:02;100442.06;;;20.42;50.00
55733;BME280;41637;52.364;9.910;2023-03-18T12:32:42;100446.33;;;20.87;48.62
55733;BME280;41637;52.364;9.910;2023-03-18T12:41:22;100445.45;;;21.11;48.64
55733;BME280;41637;52.364;9.910;2023-03-18T12:49:24;100444.48;;;23.74;40.57
55733;BME280;41637;52.364;9.910;2023-03-18T12:52:03;100440.88;;;24.33;39.55
55733;BME280;41637;52.364;9.910;2023-03-18T12:54:38;100442.46;;;24.91;37.86
55733;BME280;41637;52.364;9.910;2023-03-18T12:57:18;100434.07;;;25.56;37.22
55733;BME280;41637;52.364;9.910;2023-03-18T12:59:53;100435.48;;;25.50;37.22
55733;BME280;41637;52.364;9.910;2023-03-18T13:02:44;100434.98;;;25.59;36.58
55733;BME280;41637;52.364;9.910;2023-03-18T13:05:31;100429.42;;;26.38;35.47
55733;BME280;41637;52.364;9.910;2023-03-18T13:08:38;100432.04;;;27.25;33.68
55733;BME280;41637;52.364;9.910;2023-03-18T13:14:00;100431.82;;;28.80;31.48
55733;BME280;41637;52.364;9.910;2023-03-18T13:16:31;100426.67;;;29.03;30.83
55733;BME280;41637;52.364;9.910;2023-03-18T13:19:00;100434.15;;;29.27;30.73
55733;BME280;41637;52.364;9.910;2023-03-18T13:21:30;100433.91;;;29.64;30.62
55733;BME280;41637;52.364;9.910;2023-03-18T13:24:11;100434.08;;;30.06;29.62
55733;BME280;41637;52.364;9.910;2023-03-18T13:27:00;100431.00;;;30.36;28.76
55733;BME280;41637;52.364;9.910;2023-03-18T13:29:37;100434.73;;;30.42;28.35
55733;BME280;41637;52.364;9.910;2023-03-18T13:32:29;100431.96;;;30.43;28.14
55733;BME280;41637;52.364;9.910;2023-03-18T13:41:16;100431.45;;;30.25;27.71
55733;BME280;41637;52.364;9.910;2023-03-18T13:43:51;100430.52;;;29.89;28.41
55733;BME280;41637;52.364;9.910;2023-03-18T13:46:22;100431.56;;;28.87;29.64
55733;BME280;41637;52.364;9.910;2023-03-18T13:48:58;100437.55;;;28.38;30.57
55733;BME280;41637;52.364;9.910;2023-03-18T13:53:57;100438.52;;;26.43;32.83
55733;BME280;41637;52.364;9.910;2023-03-18T13:56:50;100436.71;;;26.20;33.07
55733;BME280;41637;52.364;9.910;2023-03-18T14:04:56;100436.77;;;24.22;35.48
55733;BME280;41637;52.364;9.910;2023-03-18T14:07:26;100434.55;;;23.87;36.79
55733;BME280;41637;52.364;9.910;2023-03-18T14:12:45;100433.66;;;23.54;37.90
55733;BME280;41637;52.364;9.910;2023-03-18T14:15:35;100426.13;;;23.49;37.78
55733;BME280;41637;52.364;9.910;2023-03-18T14:18:03;100430.41;;;23.47;37.24
55733;BME280;41637;52.364;9.910;2023-03-18T14:20:42;100420.18;;;23.58;38.00
55733;BME280;41637;52.364;9.910;2023-03-18T14:26:23;100425.18;;;23.85;37.24
55733;BME280;41637;52.364;9.910;2023-03-18T14:31:56;100413.95;;;24.15;37.24
55733;BME280;41637;52.364;9.910;2023-03-18T14:34:27;100414.02;;;24.51;36.53
55733;BME280;41637;52.364;9.910;2023-03-18T14:44:52;100409.21;;;25.60;34.54
55733;BME280;41637;52.364;9.910;2023-03-18T14:47:25;100415.83;;;25.13;34.25
55733;BME280;41637;52.364;9.910;2023-03-18T14:50:28;100414.80;;;24.41;35.36
55733;BME280;41637;52.364;9.910;2023-03-18T14:53:12;100420.34;;;23.86;36.16